createdAt,value
2023-11-18T00:00:12.351Z,101432.81
2023-11-18T00:02:40.234Z,101432.34
2023-11-18T00:05:08.710Z,101429.06
2023-11-18T00:07:36.484Z,101425.75
2023-11-18T00:10:05.726Z,101430.44
2023-11-18T00:12:36.587Z,101423.44
2023-11-18T00:15:06.348Z,101421.84
2023-11-18T00:17:33.890Z,101431.06
2023-11-18T00:20:01.466Z,101436.69
2023-11-18T00:22:29.285Z,101437.78
2023-11-18T00:24:58.171Z,101432.69
2023-11-18T00:27:26.193Z,101435.38
2023-11-18T00:29:54.308Z,101438.06
2023-11-18T00:32:21.986Z,101441.59
2023-11-18T00:34:49.646Z,101437.31
2023-11-18T00:37:17.031Z,101444.69
2023-11-18T00:39:44.355Z,101450.31
2023-11-18T00:42:12.078Z,101447.72
2023-11-18T00:44:39.497Z,101460.47
2023-11-18T00:47:07.190Z,101459.59
2023-11-18T00:49:35.284Z,101471.34
2023-11-18T00:52:03.109Z,101473.28
2023-11-18T00:54:30.444Z,101476.97
2023-11-18T00:56:57.921Z,101477.97
2023-11-18T00:59:25.417Z,101477.22
2023-11-18T01:01:52.759Z,101480.91
2023-11-18T01:04:21.160Z,101481.88
2023-11-18T01:06:49.518Z,101492.75
2023-11-18T01:09:17.447Z,101488.50
2023-11-18T01:12:07.087Z,101497.50
2023-11-18T01:14:32.725Z,101499.34
2023-11-18T01:17:00.843Z,101500.31
2023-11-18T01:19:28.212Z,101498.59
2023-11-18T01:21:56.742Z,101490.63
2023-11-18T01:24:24.106Z,101497.84
2023-11-18T01:26:51.748Z,101498.00
2023-11-18T01:29:19.168Z,101501.66
2023-11-18T01:31:52.183Z,101505.31
2023-11-18T01:34:23.339Z,101504.47
2023-11-18T01:36:51.324Z,101507.28
2023-11-18T01:39:19.574Z,101508.25
2023-11-18T01:41:47.154Z,101514.50
2023-11-18T01:44:18.913Z,101520.97
2023-11-18T01:46:47.234Z,101520.09
2023-11-18T01:49:15.763Z,101520.25
2023-11-18T01:51:46.552Z,101527.31
2023-11-18T01:54:17.287Z,101522.03
2023-11-18T01:56:48.598Z,101530.13
2023-11-18T01:59:20.052Z,101526.56
2023-11-18T02:01:55.326Z,101523.03
2023-11-18T02:04:23.202Z,101520.47
2023-11-18T02:06:51.497Z,101528.66
2023-11-18T02:09:20.419Z,101534.03
2023-11-18T02:12:00.561Z,101524.25
2023-11-18T02:14:31.318Z,101528.78
2023-11-18T02:17:01.723Z,101533.31
2023-11-18T02:19:31.330Z,101535.13
2023-11-18T02:21:59.458Z,101529.00
2023-11-18T02:24:32.272Z,101524.63
2023-11-18T02:27:00.560Z,101527.31
2023-11-18T02:29:36.831Z,101530.00
2023-11-18T02:32:39.574Z,101535.50
2023-11-18T02:35:14.661Z,101540.00
2023-11-18T02:37:46.268Z,101540.13
2023-11-18T02:40:36.729Z,101537.56
2023-11-18T02:43:10.390Z,101549.19
2023-11-18T02:45:38.498Z,101550.16
2023-11-18T02:48:08.520Z,101546.59
2023-11-18T02:50:39.572Z,101555.66
2023-11-18T02:53:07.014Z,101562.84
2023-11-18T02:55:34.467Z,101550.41
2023-11-18T02:58:06.544Z,101553.94
2023-11-18T03:00:35.166Z,101557.63
2023-11-18T03:03:04.096Z,101559.44
2023-11-18T03:05:32.150Z,101557.72
2023-11-18T03:07:59.856Z,101565.91
2023-11-18T03:10:27.433Z,101569.44
2023-11-18T03:12:55.437Z,101560.66
2023-11-18T03:15:23.970Z,101575.81
2023-11-18T03:17:53.198Z,101574.97
2023-11-18T03:20:23.956Z,101566.13
2023-11-18T03:22:52.782Z,101574.19
2023-11-18T03:25:23.280Z,101584.09
2023-11-18T03:27:50.909Z,101581.53
2023-11-18T03:30:18.379Z,101582.41
2023-11-18T03:32:46.677Z,101584.22
2023-11-18T03:35:14.394Z,101588.75
2023-11-18T03:37:43.929Z,101586.16
2023-11-18T03:40:16.153Z,101596.91
2023-11-18T03:42:44.551Z,101590.81
2023-11-18T03:45:11.963Z,101596.19
2023-11-18T03:47:39.788Z,101599.84
2023-11-18T03:50:10.193Z,101602.53
2023-11-18T03:52:39.418Z,101597.28
2023-11-18T03:55:07.762Z,101602.53
2023-11-18T03:57:35.472Z,101598.13
2023-11-18T04:00:04.347Z,101600.09
2023-11-18T04:02:37.690Z,101598.25
2023-11-18T04:05:05.548Z,101597.41
2023-11-18T04:07:33.136Z,101601.03
2023-11-18T04:10:01.531Z,101605.56
2023-11-18T04:12:28.955Z,101610.09
2023-11-18T04:14:56.360Z,101604.72
2023-11-18T04:17:29.007Z,101612.78
2023-11-18T04:19:57.215Z,101609.38
2023-11-18T04:22:25.202Z,101606.69
2023-11-18T04:24:52.558Z,101613.88
2023-11-18T04:27:19.896Z,101611.28
2023-11-18T04:29:47.236Z,101618.38
2023-11-18T04:32:15.137Z,101619.47
2023-11-18T04:34:43.780Z,101621.19
2023-11-18T04:37:11.409Z,101639.16
2023-11-18T04:39:38.757Z,101650.88
2023-11-18T04:42:06.151Z,101641.06
2023-11-18T04:44:33.589Z,101643.75
2023-11-18T04:47:02.478Z,101636.69
2023-11-18T04:49:29.969Z,101650.13
2023-11-18T04:51:58.173Z,101645.72
2023-11-18T04:54:25.790Z,101646.72
2023-11-18T04:56:53.484Z,101650.25
2023-11-18T04:59:20.823Z,101642.28
2023-11-18T05:01:48.218Z,101642.28
2023-11-18T05:04:15.596Z,101635.97
2023-11-18T05:06:42.949Z,101625.22
2023-11-18T05:09:10.227Z,101627.91
2023-11-18T05:11:37.646Z,101627.91
2023-11-18T05:14:05.108Z,101620.78
2023-11-18T05:16:32.568Z,101625.31
2023-11-18T05:18:59.893Z,101628.97
2023-11-18T05:21:27.183Z,101638.75
2023-11-18T05:23:54.481Z,101638.88
2023-11-18T05:26:21.891Z,101645.94
2023-11-18T05:28:50.043Z,101643.38
2023-11-18T05:31:17.799Z,101648.75
2023-11-18T05:33:50.517Z,101650.59
2023-11-18T05:36:17.847Z,101643.50
2023-11-18T05:38:45.096Z,101652.53
2023-11-18T05:41:17.956Z,101645.44
2023-11-18T05:43:52.476Z,101650.06
2023-11-18T05:46:24.043Z,101651.81
2023-11-18T05:48:51.741Z,101654.50
2023-11-18T05:51:24.218Z,101650.06
2023-11-18T05:53:53.196Z,101652.75
2023-11-18T05:56:24.051Z,101653.72
2023-11-18T05:58:54.740Z,101653.84
2023-11-18T06:01:23.309Z,101658.25
2023-11-18T06:03:51.506Z,101662.78
2023-11-18T06:06:22.157Z,101667.28
2023-11-18T06:08:52.211Z,101661.06
2023-11-18T06:11:20.525Z,101659.31
2023-11-18T06:13:54.663Z,101667.38
2023-11-18T06:16:23.806Z,101670.06
2023-11-18T06:18:53.541Z,101667.50
2023-11-18T06:21:25.588Z,101678.25
2023-11-18T06:23:53.164Z,101685.47
2023-11-18T06:26:20.635Z,101687.28
2023-11-18T06:28:52.757Z,101699.88
2023-11-18T06:31:25.315Z,101710.63
2023-11-18T06:33:53.631Z,101709.75
2023-11-18T06:36:27.643Z,101716.09
2023-11-18T06:38:55.246Z,101715.22
2023-11-18T06:41:40.766Z,101710.72
2023-11-18T06:44:13.765Z,101722.44
2023-11-18T06:46:41.727Z,101725.25
2023-11-18T06:49:12.351Z,101726.09
2023-11-18T06:51:40.094Z,101724.25
2023-11-18T06:54:11.995Z,101724.38
2023-11-18T06:56:45.282Z,101724.38
2023-11-18T06:59:14.871Z,101726.19
2023-11-18T07:01:46.869Z,101732.44
2023-11-18T07:04:15.807Z,101732.44
2023-11-18T07:06:44.945Z,101742.31
2023-11-18T07:09:19.881Z,101740.59
2023-11-18T07:11:52.725Z,101738.91
2023-11-18T07:14:20.244Z,101738.03
2023-11-18T07:16:48.013Z,101728.25
2023-11-18T07:19:22.436Z,101736.22
2023-11-18T07:21:50.927Z,101732.72
2023-11-18T07:24:18.796Z,101734.56
2023-11-18T07:26:46.759Z,101730.94
2023-11-18T07:29:14.473Z,101735.41
2023-11-18T07:31:42.040Z,101741.75
2023-11-18T07:34:09.434Z,101747.13
2023-11-18T07:36:36.784Z,101760.56
2023-11-18T07:39:04.936Z,101767.75
2023-11-18T07:41:33.740Z,101765.09
2023-11-18T07:44:02.591Z,101766.78
2023-11-18T07:46:32.544Z,101761.53
2023-11-18T07:49:02.617Z,101763.38
2023-11-18T07:51:30.255Z,101775.81
2023-11-18T07:53:57.889Z,101773.13
2023-11-18T07:56:25.400Z,101774.97
2023-11-18T07:58:53.331Z,101781.19
2023-11-18T08:01:22.739Z,101778.50
2023-11-18T08:03:52.430Z,101778.38
2023-11-18T08:06:20.131Z,101785.41
2023-11-18T08:08:49.254Z,101783.50
2023-11-18T08:11:18.306Z,101782.38
2023-11-18T08:13:47.123Z,101775.19
2023-11-18T08:16:15.890Z,101781.31
2023-11-18T08:18:43.421Z,101790.13
2023-11-18T08:21:10.785Z,101790.97
2023-11-18T08:23:38.338Z,101797.09
2023-11-18T08:26:07.119Z,101801.50
2023-11-18T08:28:34.705Z,101811.28
2023-11-18T08:31:03.489Z,101805.03
2023-11-18T08:33:31.558Z,101809.56
2023-11-18T08:35:58.967Z,101808.59
2023-11-18T08:38:26.504Z,101811.38
2023-11-18T08:40:54.009Z,101819.44
2023-11-18T08:43:22.547Z,101816.63
2023-11-18T08:45:54.094Z,101813.97
2023-11-18T08:48:24.059Z,101813.97
2023-11-18T08:50:52.755Z,101804.19
2023-11-18T08:53:27.463Z,101805.03
2023-11-18T08:55:57.911Z,101803.97
2023-11-18T08:58:35.189Z,101805.91
2023-11-18T09:01:14.624Z,101806.78
2023-11-18T09:03:53.564Z,101812.03
2023-11-18T09:06:29.644Z,101811.06
2023-11-18T09:08:59.495Z,101812.66
2023-11-18T09:11:34.050Z,101807.19
2023-11-18T09:14:02.777Z,101805.25
2023-11-18T09:16:31.046Z,101818.69
2023-11-18T09:19:00.897Z,101823.94
2023-11-18T09:21:30.577Z,101823.94
2023-11-18T09:23:58.276Z,101831.16
2023-11-18T09:26:27.680Z,101826.63
2023-11-18T09:28:55.865Z,101829.31
2023-11-18T09:31:23.292Z,101823.94
2023-11-18T09:33:54.181Z,101829.31
2023-11-18T09:36:23.910Z,101824.91
2023-11-18T09:38:51.618Z,101816.84
2023-11-18T09:41:19.670Z,101828.47
2023-11-18T09:43:48.903Z,101817.84
2023-11-18T09:46:34.750Z,101805.97
2023-11-18T09:49:26.876Z,101801.47
2023-11-18T09:51:59.351Z,101809.66
2023-11-18T09:54:51.777Z,101805.34
2023-11-18T09:57:27.434Z,101807.19
2023-11-18T10:00:11.960Z,101810.84
2023-11-18T10:02:42.794Z,101806.53
2023-11-18T10:05:13.723Z,101803.13
2023-11-18T10:07:43.401Z,101810.41
2023-11-18T10:10:16.050Z,101807.84
2023-11-18T10:12:53.524Z,101803.53
2023-11-18T10:15:25.999Z,101800.13
2023-11-18T10:18:23.525Z,101804.66
2023-11-18T10:20:52.373Z,101814.53
2023-11-18T10:23:22.127Z,101804.66
2023-11-18T10:25:51.224Z,101797.44
2023-11-18T10:28:33.779Z,101787.66
2023-11-18T10:31:05.988Z,101789.47
2023-11-18T10:33:38.411Z,101776.16
2023-11-18T10:36:13.696Z,101768.09
2023-11-18T10:38:50.620Z,101767.25
2023-11-18T10:41:19.940Z,101767.38
2023-11-18T10:43:49.517Z,101760.16
2023-11-18T10:46:18.042Z,101756.63
2023-11-18T10:48:50.937Z,101745.13
2023-11-18T10:51:27.673Z,101754.16
2023-11-18T10:53:59.947Z,101750.66
2023-11-18T10:56:29.479Z,101760.38
2023-11-18T10:59:07.617Z,101756.91
2023-11-18T11:01:43.808Z,101764.97
2023-11-18T11:04:11.587Z,101777.53
2023-11-18T11:06:43.782Z,101763.25
2023-11-18T11:09:16.918Z,101760.56
2023-11-18T11:11:57.110Z,101758.09
2023-11-18T11:14:30.918Z,101763.47
2023-11-18T11:17:01.613Z,101765.22
2023-11-18T11:19:45.971Z,101765.41
2023-11-18T11:22:22.291Z,101765.09
2023-11-18T11:24:52.485Z,101755.13
2023-11-18T11:28:00.970Z,101774.25
2023-11-18T11:30:41.217Z,101771.34
2023-11-18T11:33:28.968Z,101770.25
2023-11-18T11:35:58.708Z,101772.66
2023-11-18T11:38:28.109Z,101770.69
2023-11-18T11:40:56.416Z,101765.19
2023-11-18T11:43:25.443Z,101768.66
2023-11-18T11:45:54.050Z,101767.69
2023-11-18T11:48:28.498Z,101765.75
2023-11-18T11:51:21.388Z,101760.25
2023-11-18T11:53:56.343Z,101753.91
2023-11-18T11:56:39.316Z,101751.13
2023-11-18T11:59:06.808Z,101752.00
2023-11-18T12:01:38.813Z,101748.31
2023-11-18T12:04:11.889Z,101759.94
2023-11-18T12:06:43.627Z,101746.41
2023-11-18T12:09:11.286Z,101748.13
2023-11-18T12:11:40.769Z,101748.97
2023-11-18T12:14:25.278Z,101748.97
2023-11-18T12:17:07.913Z,101753.47
2023-11-18T12:19:48.094Z,101754.34
2023-11-18T12:22:20.561Z,101751.66
2023-11-18T12:25:30.194Z,101749.09
2023-11-18T12:28:00.146Z,101752.63
2023-11-18T12:30:37.063Z,101751.78
2023-11-18T12:33:20.331Z,101754.47
2023-11-18T12:35:56.547Z,101748.19
2023-11-18T12:38:58.495Z,101745.50
2023-11-18T12:41:41.216Z,101748.97
2023-11-18T12:44:38.157Z,101750.66
2023-11-18T12:47:22.584Z,101747.94
2023-11-18T12:49:56.170Z,101747.81
2023-11-18T12:52:24.702Z,101738.78
2023-11-18T12:54:57.780Z,101728.88
2023-11-18T12:57:32.766Z,101722.44
2023-11-18T13:00:02.008Z,101708.16
2023-11-18T13:02:29.721Z,101707.16
2023-11-18T13:04:58.912Z,101708.88
2023-11-18T13:07:26.469Z,101705.34
2023-11-18T13:09:55.630Z,101708.88
2023-11-18T13:12:24.908Z,101715.22
2023-11-18T13:14:52.845Z,101705.34
2023-11-18T13:17:20.391Z,101706.94
2023-11-18T13:19:49.102Z,101715.00
2023-11-18T13:22:20.256Z,101708.66
2023-11-18T13:24:47.893Z,101683.63
2023-11-18T13:27:20.405Z,101685.34
2023-11-18T13:29:54.208Z,101678.25
2023-11-18T13:32:27.077Z,101681.78
2023-11-18T13:34:55.092Z,101682.78
2023-11-18T13:37:24.385Z,101685.47
2023-11-18T13:39:59.425Z,101680.81
2023-11-18T13:42:31.765Z,101678.13
2023-11-18T13:45:09.351Z,101679.00
2023-11-18T13:47:37.933Z,101688.88
2023-11-18T13:50:09.956Z,101687.94
2023-11-18T13:52:39.790Z,101680.72
2023-11-18T13:55:18.144Z,101702.22
2023-11-18T13:57:45.632Z,101702.22
2023-11-18T14:00:17.238Z,101704.06
2023-11-18T14:02:44.798Z,101709.41
2023-11-18T14:05:20.626Z,101708.56
2023-11-18T14:08:00.515Z,101711.25
2023-11-18T14:10:29.102Z,101710.50
2023-11-18T14:13:06.804Z,101710.50
2023-11-18T14:15:37.162Z,101714.16
2023-11-18T14:18:05.770Z,101708.88
2023-11-18T14:20:33.081Z,101716.09
2023-11-18T14:23:00.615Z,101719.75
2023-11-18T14:25:28.516Z,101718.91
2023-11-18T14:27:55.916Z,101716.34
2023-11-18T14:30:25.605Z,101719.97
2023-11-18T14:32:53.400Z,101707.38
2023-11-18T14:35:21.863Z,101714.59
2023-11-18T14:37:49.624Z,101714.72
2023-11-18T14:40:17.399Z,101718.25
2023-11-18T14:42:47.120Z,101716.56
2023-11-18T14:45:15.690Z,101712.03
2023-11-18T14:47:48.701Z,101712.03
2023-11-18T14:50:20.057Z,101711.38
2023-11-18T14:53:00.996Z,101720.28
2023-11-18T14:55:30.023Z,101722.97
2023-11-18T14:57:57.859Z,101719.28
2023-11-18T15:00:29.097Z,101710.50
2023-11-18T15:02:59.362Z,101711.50
2023-11-18T15:05:28.783Z,101713.28
2023-11-18T15:07:59.097Z,101707.91
2023-11-18T15:10:27.669Z,101708.03
2023-11-18T15:12:59.724Z,101712.44
2023-11-18T15:15:35.827Z,101709.75
2023-11-18T15:18:08.649Z,101708.03
2023-11-18T15:23:11.583Z,101703.66
2023-11-18T15:25:40.142Z,101710.84
2023-11-18T15:28:10.941Z,101713.53
2023-11-18T15:30:38.697Z,101713.53
2023-11-18T15:33:09.517Z,101718.91
2023-11-18T15:35:42.213Z,101715.38
2023-11-18T15:38:10.295Z,101712.69
2023-11-18T15:40:38.062Z,101705.56
2023-11-18T15:43:09.075Z,101707.41
2023-11-18T15:45:36.591Z,101709.22
2023-11-18T15:48:08.661Z,101704.72
2023-11-18T15:50:38.957Z,101708.38
2023-11-18T15:53:15.070Z,101715.56
2023-11-18T15:55:45.096Z,101709.22
2023-11-18T15:58:12.716Z,101707.53
2023-11-18T16:00:40.448Z,101706.53
2023-11-18T16:03:10.134Z,101712.91
2023-11-18T16:05:37.991Z,101704.84
2023-11-18T16:08:08.228Z,101704.94
2023-11-18T16:10:36.164Z,101693.34
2023-11-18T16:13:03.670Z,101693.34
2023-11-18T16:15:31.916Z,101701.38
2023-11-18T16:18:01.728Z,101702.25
2023-11-18T16:20:34.616Z,101709.44
2023-11-18T16:23:05.857Z,101712.38
2023-11-18T16:25:36.103Z,101718.47
2023-11-18T16:28:04.401Z,101718.47
2023-11-18T16:30:33.836Z,101733.75
2023-11-18T16:33:03.078Z,101730.19
2023-11-18T16:35:31.315Z,101729.34
2023-11-18T16:38:01.664Z,101728.50
2023-11-18T16:40:29.962Z,101740.09
2023-11-18T16:43:00.098Z,101736.53
2023-11-18T16:45:28.055Z,101733.88
2023-11-18T16:47:56.061Z,101726.75
2023-11-18T16:50:25.900Z,101733.94
2023-11-18T16:52:54.994Z,101737.41
2023-11-18T16:55:23.015Z,101732.88
2023-11-18T16:57:54.080Z,101735.56
2023-11-18T17:00:26.570Z,101738.25
2023-11-18T17:02:57.980Z,101740.94
2023-11-18T17:05:31.492Z,101739.22
2023-11-18T17:08:00.794Z,101742.78
2023-11-18T17:10:29.102Z,101740.09
2023-11-18T17:12:58.920Z,101732.03
2023-11-18T17:15:26.273Z,101738.25
2023-11-18T17:18:00.551Z,101734.59
2023-11-18T17:20:28.486Z,101736.31
2023-11-18T17:22:55.990Z,101747.03
2023-11-18T17:25:24.883Z,101754.16
2023-11-18T17:27:54.421Z,101749.72
2023-11-18T17:30:22.294Z,101753.28
2023-11-18T17:32:56.067Z,101747.03
2023-11-18T17:35:23.654Z,101751.47
2023-11-18T17:37:51.069Z,101753.19
2023-11-18T17:40:19.326Z,101749.63
2023-11-18T17:42:46.696Z,101742.44
2023-11-18T17:45:15.536Z,101754.88
2023-11-18T17:47:44.648Z,101750.50
2023-11-18T17:50:15.389Z,101758.34
2023-11-18T17:52:53.707Z,101752.97
2023-11-18T17:55:21.307Z,101750.28
2023-11-18T17:57:48.949Z,101760.91
2023-11-18T18:00:24.885Z,101761.88
2023-11-18T18:02:53.794Z,101771.66
2023-11-18T18:05:22.111Z,101761.75
2023-11-18T18:07:49.647Z,101751.00
2023-11-18T18:10:17.611Z,101758.09
2023-11-18T18:12:47.958Z,101773.25
2023-11-18T18:15:15.789Z,101773.13
2023-11-18T18:17:44.093Z,101761.53
2023-11-18T18:20:13.483Z,101770.47
2023-11-18T18:22:42.462Z,101769.59
2023-11-18T18:25:11.039Z,101767.88
2023-11-18T18:27:39.460Z,101772.28
2023-11-18T18:30:07.649Z,101763.38
2023-11-18T18:32:35.455Z,101766.91
2023-11-18T18:35:09.348Z,101780.34
2023-11-18T18:37:36.715Z,101787.53
2023-11-18T18:40:05.920Z,101789.38
2023-11-18T18:42:33.597Z,101783.13
2023-11-18T18:45:03.797Z,101787.53
2023-11-18T18:47:34.074Z,101770.47
2023-11-18T18:50:01.473Z,101771.44
2023-11-18T18:52:28.742Z,101761.53
2023-11-18T18:54:56.134Z,101763.38
2023-11-18T18:57:23.595Z,101768.84
2023-11-18T18:59:51.837Z,101767.88
2023-11-18T19:02:19.358Z,101775.94
2023-11-18T19:04:46.877Z,101781.31
2023-11-18T19:07:14.381Z,101784.00
2023-11-18T19:09:42.779Z,101781.31
2023-11-18T19:12:10.219Z,101774.13
2023-11-18T19:14:37.642Z,101782.06
2023-11-18T19:17:05.332Z,101776.81
2023-11-18T19:19:33.238Z,101767.75
2023-11-18T19:22:01.896Z,101781.19
2023-11-18T19:24:29.507Z,101773.13
2023-11-18T19:26:57.645Z,101768.75
2023-11-18T19:29:25.243Z,101771.31
2023-11-18T19:31:52.624Z,101762.41
2023-11-18T19:34:22.533Z,101765.09
2023-11-18T19:36:49.831Z,101770.47
2023-11-18T19:39:18.170Z,101773.13
2023-11-18T19:41:45.689Z,101776.69
2023-11-18T19:44:13.207Z,101773.13
2023-11-18T19:46:40.609Z,101775.81
2023-11-18T19:49:07.948Z,101769.59
2023-11-18T19:51:35.362Z,101758.84
2023-11-18T19:54:03.818Z,101748.13
2023-11-18T19:56:31.270Z,101758.09
2023-11-18T19:58:58.555Z,101772.38
2023-11-18T20:01:26.206Z,101776.91
2023-11-18T20:03:53.710Z,101779.56
2023-11-18T20:06:21.016Z,101784.94
2023-11-18T20:08:48.331Z,101774.22
2023-11-18T20:11:15.645Z,101768.97
2023-11-18T20:13:42.998Z,101768.84
2023-11-18T20:16:10.789Z,101780.34
2023-11-18T20:18:38.736Z,101767.75
2023-11-18T20:21:06.787Z,101766.78
2023-11-18T20:23:34.316Z,101756.03
2023-11-18T20:26:01.982Z,101756.00
2023-11-18T20:28:29.635Z,101747.94
2023-11-18T20:30:57.053Z,101744.25
2023-11-18T20:33:24.596Z,101748.78
2023-11-18T20:35:53.282Z,101743.41
2023-11-18T20:38:20.923Z,101739.88
2023-11-18T20:40:49.152Z,101731.81
2023-11-18T20:43:17.459Z,101736.28
2023-11-18T20:45:45.584Z,101745.25
2023-11-18T20:48:12.951Z,101756.00
2023-11-18T20:50:40.270Z,101756.91
2023-11-18T20:53:08.568Z,101751.53
2023-11-18T20:55:36.074Z,101760.56
2023-11-18T20:58:03.522Z,101758.72
2023-11-18T21:00:31.572Z,101755.09
2023-11-18T21:02:59.149Z,101750.66
2023-11-18T21:05:27.247Z,101761.53
2023-11-18T21:07:54.722Z,101757.88
2023-11-18T21:10:22.820Z,101759.72
2023-11-18T21:12:51.401Z,101765.94
2023-11-18T21:15:20.908Z,101758.84
2023-11-18T21:17:51.272Z,101774.97
2023-11-18T21:20:20.118Z,101780.34
2023-11-18T21:22:47.503Z,101773.25
2023-11-18T21:25:16.779Z,101764.31
2023-11-18T21:27:47.133Z,101754.56
2023-11-18T21:30:14.767Z,101741.13
2023-11-18T21:32:46.623Z,101743.81
2023-11-18T21:35:24.227Z,101747.34
2023-11-18T21:37:52.026Z,101749.19
2023-11-18T21:40:20.565Z,101750.03
2023-11-18T21:42:48.072Z,101744.66
2023-11-18T21:45:15.595Z,101747.47
2023-11-18T21:47:46.028Z,101742.94
2023-11-18T21:50:15.504Z,101737.59
2023-11-18T21:52:43.112Z,101732.22
2023-11-18T21:55:10.462Z,101737.59
2023-11-18T21:57:38.806Z,101735.88
2023-11-18T22:00:12.575Z,101738.44
2023-11-18T22:02:41.580Z,101733.91
2023-11-18T22:05:09.685Z,101733.91
2023-11-18T22:07:40.650Z,101745.50
2023-11-18T22:10:11.855Z,101739.28
2023-11-18T22:12:40.610Z,101733.06
2023-11-18T22:15:08.748Z,101734.91
2023-11-18T22:17:39.310Z,101748.31
2023-11-18T22:20:13.910Z,101758.22
2023-11-18T22:22:42.007Z,101751.00
2023-11-18T22:25:10.466Z,101744.91
2023-11-18T22:27:41.308Z,101732.34
2023-11-18T22:30:13.010Z,101730.50
2023-11-18T22:32:41.009Z,101717.06
2023-11-18T22:35:09.257Z,101709.00
2023-11-18T22:37:36.870Z,101727.81
2023-11-18T22:40:16.759Z,101730.50
2023-11-18T22:42:48.162Z,101735.03
2023-11-18T22:45:20.802Z,101735.88
2023-11-18T22:47:52.188Z,101735.97
2023-11-18T22:50:24.662Z,101742.22
2023-11-18T22:52:54.417Z,101744.03
2023-11-18T22:55:23.220Z,101740.47
2023-11-18T22:57:50.844Z,101747.69
2023-11-18T23:00:38.670Z,101745.84
2023-11-18T23:03:08.005Z,101744.91
2023-11-18T23:05:37.297Z,101734.16
2023-11-18T23:08:09.316Z,101735.13
2023-11-18T23:10:38.899Z,101744.03
2023-11-18T23:13:07.275Z,101744.03
2023-11-18T23:15:40.128Z,101746.84
2023-11-18T23:18:08.651Z,101736.22
2023-11-18T23:20:39.191Z,101730.84
2023-11-18T23:23:06.803Z,101733.53
2023-11-18T23:25:34.961Z,101744.25
2023-11-18T23:28:06.137Z,101751.47
2023-11-18T23:30:33.720Z,101741.59
2023-11-18T23:33:01.077Z,101753.19
2023-11-18T23:35:29.538Z,101738.91
2023-11-18T23:37:57.479Z,101735.22
2023-11-18T23:40:26.182Z,101728.16
2023-11-18T23:42:53.784Z,101728.16
2023-11-18T23:45:21.601Z,101730.84
2023-11-18T23:47:51.999Z,101724.50
2023-11-18T23:50:20.617Z,101711.19
2023-11-18T23:52:48.154Z,101705.69
2023-11-18T23:55:15.676Z,101686.03
2023-11-18T23:57:43.396Z,101691.41
